sensor_id;sensor_type;location;lat;lon;timestamp;pressure;altitude;pressure_sealevel;temperature;humidity
62617;BME280;62539;51.190;6.808;2024-01-16T00:01:26;100569.25;;;15.78;58.16
62617;BME280;62539;51.190;6.808;2024-01-16T00:03:51;100571.03;;;15.76;58.43
62617;BME280;62539;51.190;6.808;2024-01-16T00:06:17;100577.19;;;15.73;58.31
62617;BME280;62539;51.190;6.808;2024-01-16T00:08:42;100576.34;;;15.72;58.58
62617;BME280;62539;51.190;6.808;2024-01-16T00:11:07;100579.88;;;15.70;58.41
62617;BME280;62539;51.190;6.808;2024-01-16T00:13:34;100586.00;;;15.69;58.44
62617;BME280;62539;51.190;6.808;2024-01-16T00:16:01;100582.56;;;15.67;58.51
62617;BME280;62539;51.190;6.808;2024-01-16T00:18:29;100589.59;;;15.65;58.31
62617;BME280;62539;51.190;6.808;2024-01-16T00:20:54;100596.63;;;15.63;58.37
62617;BME280;62539;51.190;6.808;2024-01-16T00:23:20;100591.38;;;15.63;58.16
62617;BME280;62539;51.190;6.808;2024-01-16T00:25:45;100586.25;;;15.60;58.49
62617;BME280;62539;51.190;6.808;2024-01-16T00:28:11;100587.13;;;15.58;58.33
62617;BME280;62539;51.190;6.808;2024-01-16T00:30:36;100588.03;;;15.57;58.32
62617;BME280;62539;51.190;6.808;2024-01-16T00:33:02;100587.19;;;15.57;58.28
62617;BME280;62539;51.190;6.808;2024-01-16T00:35:27;100592.44;;;15.55;58.25
62617;BME280;62539;51.190;6.808;2024-01-16T00:37:53;100600.34;;;15.52;58.27
62617;BME280;62539;51.190;6.808;2024-01-16T00:40:18;100602.13;;;15.52;58.34
62617;BME280;62539;51.190;6.808;2024-01-16T00:42:44;100596.97;;;15.49;58.51
62617;BME280;62539;51.190;6.808;2024-01-16T00:45:09;100599.59;;;15.47;58.51
62617;BME280;62539;51.190;6.808;2024-01-16T00:47:35;100595.28;;;15.46;58.90
62617;BME280;62539;51.190;6.808;2024-01-16T00:50:01;100607.53;;;15.44;58.54
62617;BME280;62539;51.190;6.808;2024-01-16T00:52:27;100603.19;;;15.43;58.51
62617;BME280;62539;51.190;6.808;2024-01-16T00:54:53;100603.25;;;15.41;58.91
62617;BME280;62539;51.190;6.808;2024-01-16T00:57:18;100609.38;;;15.40;58.75
62617;BME280;62539;51.190;6.808;2024-01-16T00:59:45;100610.28;;;15.39;58.84
62617;BME280;62539;51.190;6.808;2024-01-16T01:02:11;100605.88;;;15.40;58.50
62617;BME280;62539;51.190;6.808;2024-01-16T01:04:37;100616.34;;;15.40;58.62
62617;BME280;62539;51.190;6.808;2024-01-16T01:07:03;100612.84;;;15.41;57.64
62617;BME280;62539;51.190;6.808;2024-01-16T01:09:29;100617.09;;;15.45;57.91
62617;BME280;62539;51.190;6.808;2024-01-16T01:11:54;100618.75;;;15.49;57.98
62617;BME280;62539;51.190;6.808;2024-01-16T01:14:20;100624.63;;;15.57;57.63
62617;BME280;62539;51.190;6.808;2024-01-16T01:16:45;100630.59;;;15.64;57.46
62617;BME280;62539;51.190;6.808;2024-01-16T01:19:10;100628.66;;;15.72;57.41
62617;BME280;62539;51.190;6.808;2024-01-16T01:21:37;100626.69;;;15.81;57.39
62617;BME280;62539;51.190;6.808;2024-01-16T01:24:03;100633.53;;;15.88;56.98
62617;BME280;62539;51.190;6.808;2024-01-16T01:26:28;100622.88;;;15.94;56.88
62617;BME280;62539;51.190;6.808;2024-01-16T01:28:54;100624.50;;;16.00;56.40
62617;BME280;62539;51.190;6.808;2024-01-16T01:31:19;100627.88;;;16.04;56.06
62617;BME280;62539;51.190;6.808;2024-01-16T01:33:44;100630.47;;;16.04;55.98
62617;BME280;62539;51.190;6.808;2024-01-16T01:36:10;100633.97;;;16.04;56.10
62617;BME280;62539;51.190;6.808;2024-01-16T01:38:35;100641.00;;;16.02;55.95
62617;BME280;62539;51.190;6.808;2024-01-16T01:41:01;100639.28;;;16.01;55.94
62617;BME280;62539;51.190;6.808;2024-01-16T01:43:26;100638.41;;;16.00;56.03
62617;BME280;62539;51.190;6.808;2024-01-16T01:46:17;100638.47;;;15.99;55.95
62617;BME280;62539;51.190;6.808;2024-01-16T01:48:46;100637.59;;;15.98;56.07
62617;BME280;62539;51.190;6.808;2024-01-16T01:51:14;100639.38;;;15.98;55.59
62617;BME280;62539;51.190;6.808;2024-01-16T01:53:44;100637.66;;;15.97;55.28
62617;BME280;62539;51.190;6.808;2024-01-16T01:56:17;100647.22;;;15.98;55.88
62617;BME280;62539;51.190;6.808;2024-01-16T01:58:46;100651.56;;;15.97;56.01
62617;BME280;62539;51.190;6.808;2024-01-16T02:01:13;100638.50;;;15.97;56.30
62617;BME280;62539;51.190;6.808;2024-01-16T02:03:43;100646.25;;;16.00;56.23
62617;BME280;62539;51.190;6.808;2024-01-16T02:06:13;100640.06;;;16.05;56.23
62617;BME280;62539;51.190;6.808;2024-01-16T02:08:41;100646.00;;;16.11;55.89
62617;BME280;62539;51.190;6.808;2024-01-16T02:11:08;100642.41;;;16.15;55.60
62617;BME280;62539;51.190;6.808;2024-01-16T02:13:34;100648.41;;;16.19;55.42
62617;BME280;62539;51.190;6.808;2024-01-16T02:16:00;100648.38;;;16.21;55.49
62617;BME280;62539;51.190;6.808;2024-01-16T02:18:26;100645.75;;;16.21;55.60
62617;BME280;62539;51.190;6.808;2024-01-16T02:20:52;100647.56;;;16.19;55.18
62617;BME280;62539;51.190;6.808;2024-01-16T02:23:26;100650.19;;;16.17;55.26
62617;BME280;62539;51.190;6.808;2024-01-16T02:25:52;100653.78;;;16.14;55.44
62617;BME280;62539;51.190;6.808;2024-01-16T02:28:18;100654.66;;;16.13;54.97
62617;BME280;62539;51.190;6.808;2024-01-16T02:30:44;100656.47;;;16.11;55.60
62617;BME280;62539;51.190;6.808;2024-01-16T02:33:10;100654.78;;;16.09;55.11
62617;BME280;62539;51.190;6.808;2024-01-16T02:35:35;100642.59;;;16.08;54.96
62617;BME280;62539;51.190;6.808;2024-01-16T02:38:00;100650.50;;;16.06;55.02
62617;BME280;62539;51.190;6.808;2024-01-16T02:40:26;100650.53;;;16.05;55.27
62617;BME280;62539;51.190;6.808;2024-01-16T02:42:52;100654.91;;;16.04;55.88
62617;BME280;62539;51.190;6.808;2024-01-16T02:45:18;100649.69;;;16.04;55.64
62617;BME280;62539;51.190;6.808;2024-01-16T02:47:43;100654.84;;;16.07;55.83
62617;BME280;62539;51.190;6.808;2024-01-16T02:50:09;100648.56;;;16.13;55.49
62617;BME280;62539;51.190;6.808;2024-01-16T02:52:37;100651.97;;;16.16;55.30
62617;BME280;62539;51.190;6.808;2024-01-16T02:55:03;100644.88;;;16.20;55.29
62617;BME280;62539;51.190;6.808;2024-01-16T02:57:30;100643.97;;;16.23;55.08
62617;BME280;62539;51.190;6.808;2024-01-16T02:59:55;100639.56;;;16.23;54.83
62617;BME280;62539;51.190;6.808;2024-01-16T03:02:21;100635.22;;;16.24;55.00
62617;BME280;62539;51.190;6.808;2024-01-16T03:04:48;100638.72;;;16.23;54.94
62617;BME280;62539;51.190;6.808;2024-01-16T03:07:13;100640.53;;;16.21;55.09
62617;BME280;62539;51.190;6.808;2024-01-16T03:09:38;100636.28;;;16.16;54.64
62617;BME280;62539;51.190;6.808;2024-01-16T03:12:04;100637.16;;;16.15;55.36
62617;BME280;62539;51.190;6.808;2024-01-16T03:14:30;100632.91;;;16.11;55.19
62617;BME280;62539;51.190;6.808;2024-01-16T03:17:02;100641.66;;;16.10;54.38
62617;BME280;62539;51.190;6.808;2024-01-16T03:19:28;100639.13;;;16.07;54.72
62617;BME280;62539;51.190;6.808;2024-01-16T03:21:54;100635.63;;;16.07;54.50
62617;BME280;62539;51.190;6.808;2024-01-16T03:24:20;100637.44;;;16.05;54.64
62617;BME280;62539;51.190;6.808;2024-01-16T03:26:46;100633.09;;;16.04;55.27
62617;BME280;62539;51.190;6.808;2024-01-16T03:29:11;100632.19;;;16.05;55.17
62617;BME280;62539;51.190;6.808;2024-01-16T03:31:37;100634.78;;;16.06;55.15
62617;BME280;62539;51.190;6.808;2024-01-16T03:34:02;100632.09;;;16.09;55.37
62617;BME280;62539;51.190;6.808;2024-01-16T03:36:28;100633.75;;;16.13;55.54
62617;BME280;62539;51.190;6.808;2024-01-16T03:38:53;100634.50;;;16.17;54.96
62617;BME280;62539;51.190;6.808;2024-01-16T03:41:19;100625.72;;;16.20;55.09
62617;BME280;62539;51.190;6.808;2024-01-16T03:43:44;100636.13;;;16.21;54.62
62617;BME280;62539;51.190;6.808;2024-01-16T03:46:13;100637.00;;;16.22;54.81
62617;BME280;62539;51.190;6.808;2024-01-16T03:48:38;100630.91;;;16.21;54.54
62617;BME280;62539;51.190;6.808;2024-01-16T03:51:04;100631.84;;;16.19;54.89
62617;BME280;62539;51.190;6.808;2024-01-16T03:53:31;100626.69;;;16.15;54.54
62617;BME280;62539;51.190;6.808;2024-01-16T03:55:57;100636.34;;;16.13;54.98
62617;BME280;62539;51.190;6.808;2024-01-16T03:58:22;100633.75;;;16.12;54.73
62617;BME280;62539;51.190;6.808;2024-01-16T04:00:48;100632.94;;;16.10;54.28
62617;BME280;62539;51.190;6.808;2024-01-16T04:03:16;100635.63;;;16.07;54.87
62617;BME280;62539;51.190;6.808;2024-01-16T04:05:42;100633.97;;;16.04;54.65
62617;BME280;62539;51.190;6.808;2024-01-16T04:08:07;100641.00;;;16.02;54.71
62617;BME280;62539;51.190;6.808;2024-01-16T04:10:32;100637.56;;;16.00;55.02
62617;BME280;62539;51.190;6.808;2024-01-16T04:13:00;100633.19;;;16.00;55.19
62617;BME280;62539;51.190;6.808;2024-01-16T04:15:26;100636.63;;;16.02;55.21
62617;BME280;62539;51.190;6.808;2024-01-16T04:17:52;100640.88;;;16.07;55.07
62617;BME280;62539;51.190;6.808;2024-01-16T04:20:17;100644.28;;;16.10;55.07
62617;BME280;62539;51.190;6.808;2024-01-16T04:22:43;100645.03;;;16.14;54.90
62617;BME280;62539;51.190;6.808;2024-01-16T04:25:08;100650.19;;;16.17;54.79
62617;BME280;62539;51.190;6.808;2024-01-16T04:27:34;100639.72;;;16.19;54.54
62617;BME280;62539;51.190;6.808;2024-01-16T04:30:00;100636.22;;;16.18;55.05
62617;BME280;62539;51.190;6.808;2024-01-16T04:32:25;100637.09;;;16.19;54.32
62617;BME280;62539;51.190;6.808;2024-01-16T04:34:51;100641.44;;;16.18;54.36
62617;BME280;62539;51.190;6.808;2024-01-16T04:37:16;100632.75;;;16.17;54.00
62617;BME280;62539;51.190;6.808;2024-01-16T04:39:41;100637.00;;;16.22;54.62
62617;BME280;62539;51.190;6.808;2024-01-16T04:42:07;100635.97;;;16.27;54.64
62617;BME280;62539;51.190;6.808;2024-01-16T04:44:32;100641.91;;;16.34;54.59
62617;BME280;62539;51.190;6.808;2024-01-16T04:46:58;100643.47;;;16.41;54.40
62617;BME280;62539;51.190;6.808;2024-01-16T04:49:23;100645.00;;;16.49;54.30
62617;BME280;62539;51.190;6.808;2024-01-16T04:51:49;100637.88;;;16.54;54.18
62617;BME280;62539;51.190;6.808;2024-01-16T04:54:14;100640.34;;;16.58;54.10
62617;BME280;62539;51.190;6.808;2024-01-16T04:56:40;100640.25;;;16.63;54.05
62617;BME280;62539;51.190;6.808;2024-01-16T04:59:05;100647.13;;;16.66;53.84
62617;BME280;62539;51.190;6.808;2024-01-16T05:01:30;100634.00;;;16.67;53.72
62617;BME280;62539;51.190;6.808;2024-01-16T05:03:56;100640.97;;;16.68;53.57
62617;BME280;62539;51.190;6.808;2024-01-16T05:06:21;100627.91;;;16.67;52.93
62617;BME280;62539;51.190;6.808;2024-01-16T05:08:47;100628.88;;;16.64;53.16
62617;BME280;62539;51.190;6.808;2024-01-16T05:11:13;100630.66;;;16.62;53.29
62617;BME280;62539;51.190;6.808;2024-01-16T05:13:39;100625.53;;;16.57;53.19
62617;BME280;62539;51.190;6.808;2024-01-16T05:16:05;100634.38;;;16.53;53.69
62617;BME280;62539;51.190;6.808;2024-01-16T05:18:31;100636.16;;;16.53;53.87
62617;BME280;62539;51.190;6.808;2024-01-16T05:20:58;100630.84;;;16.56;53.96
62617;BME280;62539;51.190;6.808;2024-01-16T05:23:23;100628.00;;;16.64;53.92
62617;BME280;62539;51.190;6.808;2024-01-16T05:25:49;100630.50;;;16.68;53.81
62617;BME280;62539;51.190;6.808;2024-01-16T05:28:15;100627.69;;;16.74;53.10
62617;BME280;62539;51.190;6.808;2024-01-16T05:30:40;100630.22;;;16.78;53.79
62617;BME280;62539;51.190;6.808;2024-01-16T05:33:05;100643.19;;;16.82;53.69
62617;BME280;62539;51.190;6.808;2024-01-16T05:35:32;100631.66;;;16.88;53.78
62617;BME280;62539;51.190;6.808;2024-01-16T05:37:57;100638.44;;;16.95;53.57
62617;BME280;62539;51.190;6.808;2024-01-16T05:40:24;100632.19;;;17.01;53.77
62617;BME280;62539;51.190;6.808;2024-01-16T05:42:50;100623.19;;;17.10;53.75
62617;BME280;62539;51.190;6.808;2024-01-16T05:45:16;100625.53;;;17.19;54.11
62617;BME280;62539;51.190;6.808;2024-01-16T05:47:41;100617.47;;;17.25;54.18
62617;BME280;62539;51.190;6.808;2024-01-16T05:50:07;100616.38;;;17.32;54.00
62617;BME280;62539;51.190;6.808;2024-01-16T05:52:34;100609.31;;;17.34;54.05
62617;BME280;62539;51.190;6.808;2024-01-16T05:55:00;100611.84;;;17.38;54.18
62617;BME280;62539;51.190;6.808;2024-01-16T05:57:27;100612.59;;;17.41;54.30
62617;BME280;62539;51.190;6.808;2024-01-16T05:59:54;100601.25;;;17.41;54.47
62617;BME280;62539;51.190;6.808;2024-01-16T06:02:19;100595.91;;;17.44;55.21
62617;BME280;62539;51.190;6.808;2024-01-16T06:04:44;100605.41;;;17.48;55.08
62617;BME280;62539;51.190;6.808;2024-01-16T06:07:11;100604.53;;;17.47;55.18
62617;BME280;62539;51.190;6.808;2024-01-16T06:09:39;100605.41;;;17.48;54.96
62617;BME280;62539;51.190;6.808;2024-01-16T06:12:05;100605.41;;;17.48;54.67
62617;BME280;62539;51.190;6.808;2024-01-16T06:14:32;100605.41;;;17.48;54.95
62617;BME280;62539;51.190;6.808;2024-01-16T06:16:58;100596.63;;;17.49;54.35
62617;BME280;62539;51.190;6.808;2024-01-16T06:19:24;100605.28;;;17.51;54.77
62617;BME280;62539;51.190;6.808;2024-01-16T06:21:49;100601.75;;;17.52;54.52
62617;BME280;62539;51.190;6.808;2024-01-16T06:24:14;100608.72;;;17.53;54.29
62617;BME280;62539;51.190;6.808;2024-01-16T06:26:40;100610.47;;;17.53;54.53
62617;BME280;62539;51.190;6.808;2024-01-16T06:29:07;100607.81;;;17.54;54.47
62617;BME280;62539;51.190;6.808;2024-01-16T06:31:33;100611.28;;;17.55;54.24
62617;BME280;62539;51.190;6.808;2024-01-16T06:33:59;100605.94;;;17.58;54.34
62617;BME280;62539;51.190;6.808;2024-01-16T06:36:24;100609.44;;;17.58;54.42
62617;BME280;62539;51.190;6.808;2024-01-16T06:38:49;100615.50;;;17.60;54.38
62617;BME280;62539;51.190;6.808;2024-01-16T06:41:15;100611.16;;;17.59;54.54
62617;BME280;62539;51.190;6.808;2024-01-16T06:43:41;100612.75;;;17.63;54.59
62617;BME280;62539;51.190;6.808;2024-01-16T06:46:06;100613.66;;;17.62;54.41
62617;BME280;62539;51.190;6.808;2024-01-16T06:48:32;100614.47;;;17.65;54.50
62617;BME280;62539;51.190;6.808;2024-01-16T06:50:59;100618.81;;;17.66;54.41
62617;BME280;62539;51.190;6.808;2024-01-16T06:53:26;100619.66;;;17.66;54.19
62617;BME280;62539;51.190;6.808;2024-01-16T06:55:52;100624.06;;;17.66;54.42
62617;BME280;62539;51.190;6.808;2024-01-16T06:58:17;100622.34;;;17.65;54.42
62617;BME280;62539;51.190;6.808;2024-01-16T07:00:43;100624.16;;;17.62;54.34
62617;BME280;62539;51.190;6.808;2024-01-16T07:03:08;100628.53;;;17.62;54.45
62617;BME280;62539;51.190;6.808;2024-01-16T07:05:34;100625.06;;;17.61;54.40
62617;BME280;62539;51.190;6.808;2024-01-16T07:07:59;100634.66;;;17.62;54.17
62617;BME280;62539;51.190;6.808;2024-01-16T07:10:25;100637.22;;;17.64;54.24
62617;BME280;62539;51.190;6.808;2024-01-16T07:12:50;100633.69;;;17.65;54.50
62617;BME280;62539;51.190;6.808;2024-01-16T07:15:17;100636.16;;;17.70;55.47
62617;BME280;62539;51.190;6.808;2024-01-16T07:17:43;100646.56;;;17.73;54.39
62617;BME280;62539;51.190;6.808;2024-01-16T07:20:09;100649.94;;;17.76;55.27
62617;BME280;62539;51.190;6.808;2024-01-16T07:22:37;100655.03;;;17.81;55.15
62617;BME280;62539;51.190;6.808;2024-01-16T07:25:05;100647.97;;;17.83;55.75
62617;BME280;62539;51.190;6.808;2024-01-16T07:27:31;100660.91;;;17.88;55.54
62617;BME280;62539;51.190;6.808;2024-01-16T07:29:57;100659.09;;;17.90;55.69
62617;BME280;62539;51.190;6.808;2024-01-16T07:32:22;100661.69;;;17.91;55.22
62617;BME280;62539;51.190;6.808;2024-01-16T07:34:48;100654.72;;;17.90;55.44
62617;BME280;62539;51.190;6.808;2024-01-16T07:37:13;100652.91;;;17.92;55.50
62617;BME280;62539;51.190;6.808;2024-01-16T07:39:41;100663.31;;;17.96;55.72
62617;BME280;62539;51.190;6.808;2024-01-16T07:42:06;100662.41;;;17.97;55.27
62617;BME280;62539;51.190;6.808;2024-01-16T07:44:33;100659.69;;;18.00;55.67
62617;BME280;62539;51.190;6.808;2024-01-16T07:46:58;100663.94;;;18.04;55.32
62617;BME280;62539;51.190;6.808;2024-01-16T07:49:23;100661.22;;;18.07;55.47
62617;BME280;62539;51.190;6.808;2024-01-16T07:51:49;100664.63;;;18.09;55.42
62617;BME280;62539;51.190;6.808;2024-01-16T07:54:14;100661.00;;;18.13;54.27
62617;BME280;62539;51.190;6.808;2024-01-16T07:56:40;100673.09;;;18.17;55.42
62617;BME280;62539;51.190;6.808;2024-01-16T07:59:05;100668.59;;;18.21;55.09
62617;BME280;62539;51.190;6.808;2024-01-16T08:01:31;100678.16;;;18.24;55.25
62617;BME280;62539;51.190;6.808;2024-01-16T08:03:57;100672.78;;;18.27;55.21
62617;BME280;62539;51.190;6.808;2024-01-16T08:06:23;100672.63;;;18.31;55.36
62617;BME280;62539;51.190;6.808;2024-01-16T08:08:49;100669.84;;;18.36;54.84
62617;BME280;62539;51.190;6.808;2024-01-16T08:11:16;100673.28;;;18.38;54.49
62617;BME280;62539;51.190;6.808;2024-01-16T08:13:43;100673.19;;;18.40;55.00
62617;BME280;62539;51.190;6.808;2024-01-16T08:16:09;100675.78;;;18.41;54.78
62617;BME280;62539;51.190;6.808;2024-01-16T08:18:34;100674.06;;;18.40;54.57
62617;BME280;62539;51.190;6.808;2024-01-16T08:21:00;100688.00;;;18.42;53.65
62617;BME280;62539;51.190;6.808;2024-01-16T08:23:26;100680.81;;;18.47;54.63
62617;BME280;62539;51.190;6.808;2024-01-16T08:25:51;100680.59;;;18.54;54.93
62617;BME280;62539;51.190;6.808;2024-01-16T08:28:19;100679.56;;;18.58;54.57
62617;BME280;62539;51.190;6.808;2024-01-16T08:30:45;100687.22;;;18.64;54.55
62617;BME280;62539;51.190;6.808;2024-01-16T08:33:12;100688.00;;;18.66;53.18
62617;BME280;62539;51.190;6.808;2024-01-16T08:35:38;100694.06;;;18.68;52.91
62617;BME280;62539;51.190;6.808;2024-01-16T08:38:04;100690.53;;;18.69;52.92
62617;BME280;62539;51.190;6.808;2024-01-16T08:40:30;100700.94;;;18.72;52.30
62617;BME280;62539;51.190;6.808;2024-01-16T08:42:55;100699.09;;;18.74;52.03
62617;BME280;62539;51.190;6.808;2024-01-16T08:45:22;100707.88;;;18.75;52.04
62617;BME280;62539;51.190;6.808;2024-01-16T08:47:48;100697.28;;;18.76;51.86
62617;BME280;62539;51.190;6.808;2024-01-16T08:50:14;100693.72;;;18.77;51.36
62617;BME280;62539;51.190;6.808;2024-01-16T08:52:41;100698.88;;;18.80;51.62
62617;BME280;62539;51.190;6.808;2024-01-16T08:55:07;100698.72;;;18.85;52.36
62617;BME280;62539;51.190;6.808;2024-01-16T08:57:34;100706.50;;;18.88;51.75
62617;BME280;62539;51.190;6.808;2024-01-16T08:59:59;100697.69;;;18.89;51.69
62617;BME280;62539;51.190;6.808;2024-01-16T09:02:25;100691.44;;;18.92;51.45
62617;BME280;62539;51.190;6.808;2024-01-16T09:04:54;100689.63;;;18.94;51.31
62617;BME280;62539;51.190;6.808;2024-01-16T09:07:20;100691.34;;;18.95;51.07
62617;BME280;62539;51.190;6.808;2024-01-16T09:09:45;100691.34;;;18.95;51.11
62617;BME280;62539;51.190;6.808;2024-01-16T09:12:11;100689.53;;;18.97;51.11
62617;BME280;62539;51.190;6.808;2024-01-16T09:14:37;100697.44;;;18.97;50.91
62617;BME280;62539;51.190;6.808;2024-01-16T09:17:03;100698.31;;;18.96;51.11
62617;BME280;62539;51.190;6.808;2024-01-16T09:19:29;100700.94;;;18.98;50.87
62617;BME280;62539;51.190;6.808;2024-01-16T09:21:55;100693.78;;;19.01;50.45
62617;BME280;62539;51.190;6.808;2024-01-16T09:24:21;100698.00;;;19.05;50.90
62617;BME280;62539;51.190;6.808;2024-01-16T09:26:46;100697.16;;;19.05;50.32
62617;BME280;62539;51.190;6.808;2024-01-16T09:29:12;100698.19;;;19.01;50.62
62617;BME280;62539;51.190;6.808;2024-01-16T09:31:39;100691.34;;;18.97;50.39
62617;BME280;62539;51.190;6.808;2024-01-16T09:34:06;100701.97;;;18.92;50.68
62617;BME280;62539;51.190;6.808;2024-01-16T09:36:31;100703.00;;;18.88;50.56
62617;BME280;62539;51.190;6.808;2024-01-16T09:38:57;100698.72;;;18.85;50.56
62617;BME280;62539;51.190;6.808;2024-01-16T09:41:23;100701.47;;;18.82;51.00
62617;BME280;62539;51.190;6.808;2024-01-16T09:43:49;100692.72;;;18.81;50.79
62617;BME280;62539;51.190;6.808;2024-01-16T09:46:17;100692.72;;;18.81;50.83
62617;BME280;62539;51.190;6.808;2024-01-16T09:48:47;100686.53;;;18.83;50.58
62617;BME280;62539;51.190;6.808;2024-01-16T09:51:13;100688.25;;;18.84;50.63
62617;BME280;62539;51.190;6.808;2024-01-16T09:53:42;100690.88;;;18.84;50.59
62617;BME280;62539;51.190;6.808;2024-01-16T09:56:16;100689.97;;;18.85;50.21
62617;BME280;62539;51.190;6.808;2024-01-16T09:58:48;100692.56;;;18.86;50.60
62617;BME280;62539;51.190;6.808;2024-01-16T10:01:15;100689.00;;;18.87;50.40
62617;BME280;62539;51.190;6.808;2024-01-16T10:03:44;100686.31;;;18.89;50.29
62617;BME280;62539;51.190;6.808;2024-01-16T10:06:10;100688.03;;;18.90;50.12
62617;BME280;62539;51.190;6.808;2024-01-16T10:08:37;100682.66;;;18.93;49.90
62617;BME280;62539;51.190;6.808;2024-01-16T10:11:03;100680.81;;;18.95;50.34
62617;BME280;62539;51.190;6.808;2024-01-16T10:13:29;100677.28;;;18.98;50.24
62617;BME280;62539;51.190;6.808;2024-01-16T10:15:55;100670.91;;;19.03;50.23
62617;BME280;62539;51.190;6.808;2024-01-16T10:18:30;100667.25;;;19.07;49.79
62617;BME280;62539;51.190;6.808;2024-01-16T10:20:55;100668.03;;;19.09;49.68
62617;BME280;62539;51.190;6.808;2024-01-16T10:23:24;100669.63;;;19.14;49.69
62617;BME280;62539;51.190;6.808;2024-01-16T10:26:10;100667.69;;;19.19;49.50
62617;BME280;62539;51.190;6.808;2024-01-16T10:28:41;100665.69;;;19.26;49.37
62617;BME280;62539;51.190;6.808;2024-01-16T10:31:12;100665.38;;;19.33;49.44
62617;BME280;62539;51.190;6.808;2024-01-16T10:33:40;100663.28;;;19.42;49.06
62617;BME280;62539;51.190;6.808;2024-01-16T10:36:14;100650.69;;;19.50;49.01
62617;BME280;62539;51.190;6.808;2024-01-16T10:38:45;100651.13;;;19.61;48.81
62617;BME280;62539;51.190;6.808;2024-01-16T10:41:12;100644.63;;;19.70;48.27
62617;BME280;62539;51.190;6.808;2024-01-16T10:43:39;100638.97;;;19.79;48.04
62617;BME280;62539;51.190;6.808;2024-01-16T10:46:18;100636.84;;;19.89;47.88
62617;BME280;62539;51.190;6.808;2024-01-16T10:49:03;100644.34;;;19.98;47.78
62617;BME280;62539;51.190;6.808;2024-01-16T10:51:31;100645.94;;;20.03;47.72
62617;BME280;62539;51.190;6.808;2024-01-16T10:56:29;100637.63;;;20.12;47.42
62617;BME280;62539;51.190;6.808;2024-01-16T10:59:18;100636.44;;;20.19;47.24
62617;BME280;62539;51.190;6.808;2024-01-16T11:01:51;100644.81;;;20.29;47.11
62617;BME280;62539;51.190;6.808;2024-01-16T11:04:20;100639.41;;;20.32;46.64
62617;BME280;62539;51.190;6.808;2024-01-16T11:06:52;100637.34;;;20.39;46.43
62617;BME280;62539;51.190;6.808;2024-01-16T11:09:18;100636.41;;;20.40;46.84
62617;BME280;62539;51.190;6.808;2024-01-16T11:11:46;100631.00;;;20.43;46.96
62617;BME280;62539;51.190;6.808;2024-01-16T11:14:15;100637.72;;;20.50;45.98
62617;BME280;62539;51.190;6.808;2024-01-16T11:16:42;100628.63;;;20.58;46.24
62617;BME280;62539;51.190;6.808;2024-01-16T11:19:11;100628.06;;;21.45;44.54
62617;BME280;62539;51.190;6.808;2024-01-16T11:21:37;100631.63;;;21.98;42.94
62617;BME280;62539;51.190;6.808;2024-01-16T11:24:04;100628.84;;;22.53;42.44
62617;BME280;62539;51.190;6.808;2024-01-16T11:26:31;100643.41;;;23.26;41.00
62617;BME280;62539;51.190;6.808;2024-01-16T11:28:59;100644.28;;;23.87;39.32
62617;BME280;62539;51.190;6.808;2024-01-16T11:31:35;100644.97;;;24.36;38.29
62617;BME280;62539;51.190;6.808;2024-01-16T11:34:02;100651.88;;;24.82;37.70
62617;BME280;62539;51.190;6.808;2024-01-16T11:36:48;100662.31;;;25.27;36.94
62617;BME280;62539;51.190;6.808;2024-01-16T11:39:23;100672.94;;;25.95;36.28
62617;BME280;62539;51.190;6.808;2024-01-16T11:47:17;100639.13;;;25.97;35.99
62617;BME280;62539;51.190;6.808;2024-01-16T11:50:09;100634.19;;;25.65;36.59
62617;BME280;62539;51.190;6.808;2024-01-16T11:52:43;100629.81;;;26.30;35.52
62617;BME280;62539;51.190;6.808;2024-01-16T12:00:41;100626.94;;;28.62;32.12
62617;BME280;62539;51.190;6.808;2024-01-16T12:03:13;100621.59;;;28.85;31.57
62617;BME280;62539;51.190;6.808;2024-01-16T12:05:41;100613.66;;;29.27;31.14
62617;BME280;62539;51.190;6.808;2024-01-16T12:08:08;100617.06;;;29.62;30.41
62617;BME280;62539;51.190;6.808;2024-01-16T12:10:46;100615.09;;;29.85;29.76
62617;BME280;62539;51.190;6.808;2024-01-16T12:13:15;100608.44;;;30.01;29.71
62617;BME280;62539;51.190;6.808;2024-01-16T12:15:40;100597.56;;;30.14;29.35
62617;BME280;62539;51.190;6.808;2024-01-16T12:18:07;100593.81;;;30.36;29.32
62617;BME280;62539;51.190;6.808;2024-01-16T12:20:35;100589.78;;;30.42;29.00
62617;BME280;62539;51.190;6.808;2024-01-16T12:23:03;100591.22;;;30.56;29.28
62617;BME280;62539;51.190;6.808;2024-01-16T12:25:34;100586.47;;;30.59;28.67
62617;BME280;62539;51.190;6.808;2024-01-16T12:28:03;100578.44;;;30.69;28.91
62617;BME280;62539;51.190;6.808;2024-01-16T12:30:32;100572.84;;;30.82;28.89
62617;BME280;62539;51.190;6.808;2024-01-16T12:33:07;100566.22;;;30.96;28.42
62617;BME280;62539;51.190;6.808;2024-01-16T12:35:37;100560.31;;;31.02;28.23
62617;BME280;62539;51.190;6.808;2024-01-16T12:38:05;100561.03;;;31.14;28.45
62617;BME280;62539;51.190;6.808;2024-01-16T12:40:36;100560.31;;;31.22;28.35
62617;BME280;62539;51.190;6.808;2024-01-16T12:43:03;100556.81;;;31.21;28.33
62617;BME280;62539;51.190;6.808;2024-01-16T12:45:29;100560.06;;;31.35;28.26
62617;BME280;62539;51.190;6.808;2024-01-16T12:47:56;100552.72;;;31.37;28.24
62617;BME280;62539;51.190;6.808;2024-01-16T12:50:27;100558.47;;;31.32;27.97
62617;BME280;62539;51.190;6.808;2024-01-16T12:53:21;100557.63;;;31.12;28.10
62617;BME280;62539;51.190;6.808;2024-01-16T12:55:57;100549.84;;;30.29;21.91
62617;BME280;62539;51.190;6.808;2024-01-16T12:58:25;100546.50;;;29.74;21.35
62617;BME280;62539;51.190;6.808;2024-01-16T13:00:56;100551.59;;;29.56;20.95
62617;BME280;62539;51.190;6.808;2024-01-16T13:03:25;100551.56;;;29.46;20.46